Time;durP1;ratioP1;P1;durP2;ratioP2;P2;SDS_P1;SDS_P2;PMS_P1;PMS_P2;Temp;Humidity;BMP_temperature;BMP_pressure;BME280_temperature;BME280_humidity;BME280_pressure;Samples;Min_cycle;Max_cycle;Signal;HPM_P1;HPM_P2
2021/04/25 00:02:12;;;;;;;3.07;1.20;;;;;;;2.79;60.63;99967.95;1778351;78;21199;-53
2021/04/25 00:04:39;;;;;;;2.17;1.10;;;;;;;2.78;60.62;99963.08;1777280;78;21163;-54
2021/04/25 00:07:07;;;;;;;4.73;1.03;;;;;;;2.78;60.64;99968.84;1780026;78;21171;-53
2021/04/25 00:09:35;;;;;;;4.10;1.13;;;;;;;2.75;60.69;99965.77;1781325;78;22681;-53
2021/04/25 00:12:04;;;;;;;5.17;1.57;;;;;;;2.73;60.76;99971.55;1777856;78;21195;-54
2021/04/25 00:14:31;;;;;;;5.27;1.60;;;;;;;2.74;60.80;99967.11;1781111;78;21540;-54
2021/04/25 00:16:58;;;;;;;5.27;1.10;;;;;;;2.72;60.81;99968.48;1779387;78;21879;-53
2021/04/25 00:19:26;;;;;;;4.90;1.47;;;;;;;2.72;60.87;99956.98;1749830;80;21140;-54
2021/04/25 00:21:53;;;;;;;4.97;1.60;;;;;;;2.71;60.93;99966.73;1727357;80;21195;-54
2021/04/25 00:24:21;;;;;;;3.57;1.90;;;;;;;2.70;60.96;99961.42;1726573;80;21406;-54
2021/04/25 00:26:50;;;;;;;2.83;1.57;;;;;;;2.68;60.94;99956.13;1725215;80;21247;-54
2021/04/25 00:29:17;;;;;;;5.33;1.77;;;;;;;2.68;60.99;99956.13;1722657;80;21546;-54
2021/04/25 00:31:45;;;;;;;4.60;1.30;;;;;;;2.67;61.06;99954.36;1724992;80;21223;-54
2021/04/25 00:34:14;;;;;;;2.63;1.20;;;;;;;2.65;61.08;99957.03;1711280;82;21131;-54
2021/04/25 00:36:42;;;;;;;3.80;1.47;;;;;;;2.65;61.09;99946.41;1729634;80;21570;-55
2021/04/25 00:39:10;;;;;;;4.40;1.23;;;;;;;2.64;61.12;99951.28;1727880;82;21139;-54
2021/04/25 00:41:37;;;;;;;3.77;1.30;;;;;;;2.63;61.15;99951.33;1727054;81;21650;-55
2021/04/25 00:44:09;;;;;;;4.60;1.30;;;;;;;2.61;61.18;99946.48;1732030;81;21119;-55
2021/04/25 00:46:37;;;;;;;4.43;1.10;;;;;;;2.57;61.22;99944.30;1703277;81;21403;-55
2021/04/25 00:49:05;;;;;;;2.77;1.10;;;;;;;2.55;61.30;99948.74;1732659;81;21139;-55
2021/04/25 00:51:33;;;;;;;3.50;1.20;;;;;;;2.54;61.36;99944.36;1732063;81;21155;-55
2021/04/25 00:54:01;;;;;;;1.77;0.90;;;;;;;2.54;61.36;99939.48;1731116;82;22043;-54
2021/04/25 00:56:29;;;;;;;1.37;0.83;;;;;;;2.52;61.39;99932.86;1733217;81;21133;-55
2021/04/25 00:58:56;;;;;;;2.17;0.93;;;;;;;2.51;61.43;99938.19;1705711;81;21123;-55
2021/04/25 01:01:26;;;;;;;3.77;0.90;;;;;;;2.50;61.48;99932.00;1735222;81;21154;-55
2021/04/25 01:03:53;;;;;;;2.70;0.93;;;;;;;2.49;61.51;99930.23;1733346;81;21154;-55
2021/04/25 01:06:21;;;;;;;3.10;0.90;;;;;;;2.49;61.55;99922.70;1731484;81;21115;-56
2021/04/25 01:08:49;;;;;;;3.37;1.17;;;;;;;2.48;61.60;99924.93;1731231;81;21534;-56
2021/04/25 01:11:18;;;;;;;3.10;0.90;;;;;;;2.47;61.65;99927.16;1733005;81;21154;-56
2021/04/25 01:13:50;;;;;;;4.17;0.90;;;;;;;2.45;61.74;99921.01;1732674;81;21341;-56
2021/04/25 01:16:17;;;;;;;5.20;1.30;;;;;;;2.43;61.81;99913.05;1728323;82;21221;-55
2021/04/25 01:18:44;;;;;;;2.40;0.90;;;;;;;2.41;61.88;99906.88;1733355;81;21228;-55
2021/04/25 01:21:12;;;;;;;6.27;0.97;;;;;;;2.41;61.90;99913.52;1733190;81;21182;-55
2021/04/25 01:23:40;;;;;;;3.63;0.90;;;;;;;2.42;61.93;99905.98;1731875;81;21645;-54
2021/04/25 01:26:07;;;;;;;2.30;0.90;;;;;;;2.42;61.91;99905.98;1732586;81;21198;-55
2021/04/25 01:28:34;;;;;;;2.10;1.00;;;;;;;2.42;61.94;99903.32;1729308;81;21278;-55
2021/04/25 01:31:02;;;;;;;4.17;1.00;;;;;;;2.42;61.97;99901.98;1730875;81;21709;-55
2021/04/25 01:33:30;;;;;;;1.90;0.70;;;;;;;2.42;61.98;99895.34;1728810;80;21095;-55
2021/04/25 01:35:57;;;;;;;1.87;0.90;;;;;;;2.43;61.95;99897.56;1728826;80;21124;-54
2021/04/25 01:38:24;;;;;;;2.03;1.10;;;;;;;2.43;61.97;99894.45;1721824;81;21403;-55
2021/04/25 01:40:52;;;;;;;1.87;0.87;;;;;;;2.43;61.95;99894.91;1779768;78;21608;-55
2021/04/25 01:43:19;;;;;;;1.97;0.90;;;;;;;2.41;61.96;99890.05;1780049;78;21181;-55
2021/04/25 01:45:48;;;;;;;4.30;0.90;;;;;;;2.42;61.95;99893.14;1778467;78;21147;-55
2021/04/25 01:48:15;;;;;;;1.50;0.90;;;;;;;2.42;61.93;99886.05;1780237;78;21230;-55
2021/04/25 01:50:43;;;;;;;3.93;1.00;;;;;;;2.41;61.91;99884.73;1778846;78;21891;-55
2021/04/25 01:53:12;;;;;;;4.60;1.03;;;;;;;2.42;61.98;99887.37;1780544;78;21791;-56
2021/04/25 01:55:41;;;;;;;1.77;0.83;;;;;;;2.44;61.94;99880.27;1779713;78;22345;-55
2021/04/25 01:58:09;;;;;;;2.60;0.80;;;;;;;2.45;61.90;99893.98;1780232;78;21159;-56
2021/04/25 02:00:44;;;;;;;2.70;0.77;;;;;;;2.46;61.85;99881.59;1780469;78;22074;-55
2021/04/25 02:03:13;;;;;;;4.15;0.80;;;;;;;2.46;61.83;99878.93;1783643;78;22233;-56
2021/04/25 02:05:41;;;;;;;3.57;1.00;;;;;;;2.45;61.84;99875.39;1781558;78;21206;-56
2021/04/25 02:08:08;;;;;;;4.83;0.80;;;;;;;2.46;61.83;99877.60;1780528;78;21179;-56
2021/04/25 02:10:36;;;;;;;3.53;0.90;;;;;;;2.47;61.82;99870.03;1779840;78;21561;-56
2021/04/25 02:13:04;;;;;;;2.50;0.80;;;;;;;2.46;61.76;99870.52;1778998;78;21191;-56
2021/04/25 02:15:31;;;;;;;5.27;0.80;;;;;;;2.48;61.80;99872.67;1781477;78;21224;-56
2021/04/25 02:18:01;;;;;;;3.50;0.70;;;;;;;2.48;61.80;99866.03;1779986;78;21476;-56
2021/04/25 02:20:30;;;;;;;1.90;0.77;;;;;;;2.51;61.79;99869.11;1781675;78;21559;-56
2021/04/25 02:22:58;;;;;;;3.47;0.83;;;;;;;2.53;61.75;99876.16;1782266;78;21156;-55
2021/04/25 02:25:25;;;;;;;1.53;0.80;;;;;;;2.56;61.73;99876.10;1779322;78;21171;-55
2021/04/25 02:27:53;;;;;;;4.37;1.03;;;;;;;2.60;61.73;99877.83;1778674;78;22264;-55
2021/04/25 02:32:41;;;;;;;5.70;1.40;;;;;;;2.73;61.60;99872.32;1869556;74;26906;-56
2021/04/25 02:35:10;;;;;;;3.10;0.77;;;;;;;2.71;61.50;99872.37;1778568;78;21159;-56
2021/04/25 02:37:39;;;;;;;2.97;1.40;;;;;;;2.74;61.40;99874.96;1803270;78;21382;-55
2021/04/25 02:40:08;;;;;;;2.60;1.00;;;;;;;2.77;61.34;99876.26;1775335;78;21649;-55
2021/04/25 02:42:37;;;;;;;3.73;0.80;;;;;;;2.80;61.37;99869.58;1776501;79;21001;-56
2021/04/25 02:45:06;;;;;;;1.30;0.80;;;;;;;2.83;61.28;99871.29;1782859;78;21597;-55
2021/04/25 02:47:34;;;;;;;2.50;0.90;;;;;;;2.86;61.17;99869.47;1779919;78;21219;-54
2021/04/25 02:50:01;;;;;;;3.97;0.80;;;;;;;2.88;61.12;99865.02;1785175;78;21349;-55
2021/04/25 02:52:29;;;;;;;1.80;0.80;;;;;;;2.92;61.10;99857.41;1783673;78;21218;-55
2021/04/25 02:54:56;;;;;;;3.67;0.80;;;;;;;2.95;60.92;99848.06;1773076;79;21559;-54
2021/04/25 02:57:23;;;;;;;1.97;0.90;;;;;;;2.98;60.86;99850.65;1791575;78;21266;-54
2021/04/25 02:59:50;;;;;;;1.73;0.80;;;;;;;3.01;60.92;99853.27;1786728;78;21176;-54
2021/04/25 03:02:17;;;;;;;2.30;0.80;;;;;;;3.06;60.86;99840.37;1788044;79;21209;-55
2021/04/25 03:04:45;;;;;;;1.57;0.73;;;;;;;3.09;60.92;99842.51;1787629;79;21189;-54
2021/04/25 03:07:13;;;;;;;1.33;0.80;;;;;;;3.13;60.87;99845.56;1786995;78;21194;-54
2021/04/25 03:09:40;;;;;;;1.60;1.00;;;;;;;3.19;60.87;99844.56;1786850;78;21241;-54
2021/04/25 03:12:08;;;;;;;4.00;0.80;;;;;;;3.22;60.87;99844.52;1791556;79;21616;-54
2021/04/25 03:14:37;;;;;;;5.83;1.57;;;;;;;3.25;60.85;99845.33;1788720;79;21708;-54
2021/04/25 03:17:04;;;;;;;5.07;0.93;;;;;;;3.28;60.90;99846.62;1789017;79;21217;-54
2021/04/25 03:19:31;;;;;;;2.37;1.00;;;;;;;3.30;60.96;99850.14;1789333;78;21199;-53
2021/04/25 03:21:59;;;;;;;2.03;0.80;;;;;;;3.33;61.01;99844.74;1759383;79;21519;-53
2021/04/25 03:24:26;;;;;;;1.83;0.80;;;;;;;3.37;60.96;99849.13;1791536;79;21113;-53
2021/04/25 03:26:53;;;;;;;6.23;0.90;;;;;;;3.40;60.88;99853.03;1808535;78;22130;-53
2021/04/25 03:29:21;;;;;;;2.77;0.87;;;;;;;3.42;60.77;99857.89;1807991;78;21392;-53
2021/04/25 03:31:48;;;;;;;3.03;1.00;;;;;;;3.44;60.71;99859.20;1784325;78;21633;-53
2021/04/25 03:34:15;;;;;;;1.27;0.80;;;;;;;3.47;60.72;99848.96;1807295;78;21155;-53
2021/04/25 03:36:42;;;;;;;8.23;2.17;;;;;;;3.49;60.61;99852.48;1807440;77;21782;-53
2021/04/25 03:39:11;;;;;;;1.27;0.80;;;;;;;3.52;60.71;99851.95;1784729;78;23601;-53
2021/04/25 03:41:38;;;;;;;5.50;0.80;;;;;;;3.55;60.72;99855.02;1778979;79;21888;-53
2021/04/25 03:44:05;;;;;;;3.00;0.80;;;;;;;3.55;60.83;99847.92;1783201;79;21173;-53
2021/04/25 03:46:33;;;;;;;3.90;1.20;;;;;;;3.56;60.75;99847.02;1781400;79;21653;-53
2021/04/25 03:49:01;;;;;;;4.03;0.70;;;;;;;3.56;60.92;99855.00;1782136;79;21190;-53
2021/04/25 03:51:28;;;;;;;2.93;0.90;;;;;;;3.57;61.09;99849.22;1782462;79;21769;-52
2021/04/25 03:53:55;;;;;;;3.57;0.80;;;;;;;3.58;61.11;99850.95;1784920;79;22560;-53
2021/04/25 03:56:22;;;;;;;2.33;1.37;;;;;;;3.62;61.22;99854.00;1784186;78;21207;-52
2021/04/25 03:58:50;;;;;;;1.60;0.80;;;;;;;3.71;60.89;99851.16;1806936;78;21600;-53
2021/04/25 04:01:18;;;;;;;4.00;0.90;;;;;;;3.86;60.60;99852.64;1785270;78;21071;-53
2021/04/25 04:03:46;;;;;;;3.77;0.90;;;;;;;4.06;60.23;99850.48;1784125;78;21919;-52
2021/04/25 04:06:14;;;;;;;1.50;0.90;;;;;;;4.34;59.81;99850.78;1782862;79;21213;-52
2021/04/25 04:08:41;;;;;;;2.63;1.00;;;;;;;4.67;59.11;99844.70;1782905;79;21187;-52
2021/04/25 04:11:09;;;;;;;1.97;0.90;;;;;;;5.08;58.32;99839.71;1784128;79;21273;-51
2021/04/25 04:13:36;;;;;;;3.23;0.83;;;;;;;5.51;57.46;99832.83;1781942;79;21203;-52
2021/04/25 04:16:04;;;;;;;4.47;1.10;;;;;;;5.94;56.34;99830.35;1780979;79;21376;-52
2021/04/25 04:18:34;;;;;;;2.30;0.90;;;;;;;6.33;55.21;99826.97;1778069;79;21210;-52
2021/04/25 04:21:01;;;;;;;1.60;0.80;;;;;;;6.63;54.25;99829.19;1780516;79;21534;-52
2021/04/25 04:23:28;;;;;;;3.63;0.80;;;;;;;6.85;53.34;99819.55;1781379;79;21170;-52
2021/04/25 04:25:56;;;;;;;1.83;0.90;;;;;;;7.10;52.62;99819.16;1778419;79;21224;-52
2021/04/25 04:28:24;;;;;;;3.83;0.90;;;;;;;7.36;51.87;99814.27;1811522;78;21333;-52
2021/04/25 04:30:51;;;;;;;2.03;1.00;;;;;;;7.59;51.21;99821.04;1807442;78;21190;-54
2021/04/25 04:33:18;;;;;;;1.97;0.73;;;;;;;7.74;50.53;99814.75;1779780;78;21192;-52
2021/04/25 04:35:47;;;;;;;1.00;0.70;;;;;;;7.77;50.15;99813.28;1793572;79;21188;-53
2021/04/25 04:38:14;;;;;;;1.20;0.73;;;;;;;7.76;49.93;99810.19;1780685;78;21186;-51
2021/04/25 04:40:42;;;;;;;1.67;1.10;;;;;;;7.71;49.47;99817.53;1811667;77;21184;-53
2021/04/25 04:43:09;;;;;;;4.83;1.00;;;;;;;7.53;49.45;99815.03;1780731;80;21183;-52
2021/04/25 04:45:36;;;;;;;3.40;0.90;;;;;;;7.39;49.71;99822.67;1782789;78;21581;-52
2021/04/25 04:48:05;;;;;;;2.90;0.83;;;;;;;7.29;50.00;99829.27;1770539;80;21206;-52
2021/04/25 04:50:32;;;;;;;3.07;1.07;;;;;;;7.22;50.44;99825.92;1778003;79;21123;-52
2021/04/25 04:52:59;;;;;;;2.37;1.10;;;;;;;7.13;50.55;99828.91;1787860;78;21011;-52
2021/04/25 04:55:27;;;;;;;4.17;1.47;;;;;;;7.00;50.52;99828.88;1780248;80;21274;-53
2021/04/25 04:57:54;;;;;;;5.23;1.20;;;;;;;6.85;50.82;99824.91;1770301;80;21171;-52
2021/04/25 05:00:22;;;;;;;3.93;1.00;;;;;;;6.76;51.06;99826.07;1809908;77;21010;-52
2021/04/25 05:02:49;;;;;;;2.83;0.77;;;;;;;6.74;51.38;99825.23;1781632;78;21138;-52
2021/04/25 05:05:17;;;;;;;1.73;0.87;;;;;;;6.75;51.62;99829.66;1781677;79;23760;-52
2021/04/25 05:07:44;;;;;;;1.67;0.90;;;;;;;6.75;51.71;99826.98;1785567;79;21158;-53
2021/04/25 05:10:12;;;;;;;2.90;1.10;;;;;;;6.77;51.86;99820.26;1775236;78;21498;-52
2021/04/25 05:12:39;;;;;;;1.60;1.00;;;;;;;6.79;51.88;99822.43;1783755;78;21247;-52
2021/04/25 05:15:07;;;;;;;2.23;1.23;;;;;;;6.80;52.06;99820.17;1779274;78;21503;-52
2021/04/25 05:17:34;;;;;;;3.27;0.97;;;;;;;6.87;52.25;99823.52;1791257;78;21287;-53
2021/04/25 05:20:01;;;;;;;3.57;0.87;;;;;;;6.93;52.21;99820.17;1778716;80;21174;-53
2021/04/25 05:22:28;;;;;;;2.80;1.00;;;;;;;6.99;52.36;99815.08;1793494;79;22192;-51
2021/04/25 05:24:56;;;;;;;1.93;0.80;;;;;;;7.07;52.44;99817.04;1790948;79;21212;-53
2021/04/25 05:27:23;;;;;;;2.50;0.90;;;;;;;7.18;52.45;99813.55;1790041;79;21210;-53
2021/04/25 05:29:51;;;;;;;4.40;1.10;;;;;;;7.28;52.34;99810.11;1790803;79;21219;-52
2021/04/25 05:32:19;;;;;;;3.33;1.20;;;;;;;7.35;52.06;99814.32;1789246;78;21630;-51
2021/04/25 05:34:46;;;;;;;2.50;1.50;;;;;;;7.41;51.93;99814.10;1794158;79;21190;-52
2021/04/25 05:37:13;;;;;;;1.63;1.10;;;;;;;7.47;52.07;99817.93;1791742;79;21594;-52
2021/04/25 05:39:40;;;;;;;1.30;0.77;;;;;;;7.53;51.63;99813.69;1786291;79;21181;-52
2021/04/25 05:42:08;;;;;;;1.43;0.80;;;;;;;7.58;51.88;99817.95;1787639;79;21217;-52
2021/04/25 05:44:35;;;;;;;2.63;0.77;;;;;;;7.66;51.83;99819.47;1789664;79;21190;-52
2021/04/25 05:47:02;;;;;;;1.57;0.90;;;;;;;7.72;52.03;99825.52;1783227;78;22283;-52
2021/04/25 05:49:30;;;;;;;1.43;0.90;;;;;;;7.82;51.79;99834.11;1807747;78;21182;-53
2021/04/25 05:51:58;;;;;;;3.30;1.00;;;;;;;7.84;51.15;99842.94;1776962;79;21495;-51
2021/04/25 05:54:25;;;;;;;2.97;1.10;;;;;;;7.85;51.12;99833.52;1809179;78;21375;-52
2021/04/25 05:56:52;;;;;;;5.73;1.00;;;;;;;7.83;51.04;99838.05;1779293;78;21780;-52
2021/04/25 05:59:20;;;;;;;3.30;1.13;;;;;;;7.82;50.76;99839.47;1776576;78;21172;-52
2021/04/25 06:01:48;;;;;;;3.63;1.40;;;;;;;7.76;51.07;99851.26;1778260;79;21328;-52
2021/04/25 06:04:15;;;;;;;2.53;1.20;;;;;;;7.75;51.39;99844.61;1780064;79;21546;-52
2021/04/25 06:06:42;;;;;;;2.63;1.10;;;;;;;7.78;51.78;99841.83;1781890;79;22045;-52
2021/04/25 06:09:09;;;;;;;1.53;1.20;;;;;;;7.80;51.68;99845.34;1783890;79;21543;-52
2021/04/25 06:11:36;;;;;;;4.07;1.20;;;;;;;7.76;51.84;99849.05;1781830;79;21111;-52
2021/04/25 06:14:05;;;;;;;4.53;1.47;;;;;;;7.75;52.26;99840.59;1810768;78;21032;-52
2021/04/25 06:16:32;;;;;;;1.93;1.40;;;;;;;7.79;52.25;99841.78;1792551;78;21104;-52
2021/04/25 06:19:00;;;;;;;2.90;1.43;;;;;;;7.87;52.50;99841.05;1784096;79;21632;-52
2021/04/25 06:21:28;;;;;;;3.87;1.40;;;;;;;7.98;52.44;99841.55;1780783;79;21554;-52
2021/04/25 06:23:56;;;;;;;3.60;1.33;;;;;;;8.07;52.32;99842.14;1783029;79;21147;-52
2021/04/25 06:26:24;;;;;;;2.00;1.23;;;;;;;8.11;52.46;99834.37;1781472;79;21135;-51
2021/04/25 06:28:52;;;;;;;1.70;1.30;;;;;;;8.15;52.49;99830.66;1780154;79;21638;-52
2021/04/25 06:31:20;;;;;;;2.17;0.90;;;;;;;8.17;52.32;99824.29;1781806;79;22233;-52
2021/04/25 06:33:47;;;;;;;3.00;1.10;;;;;;;8.19;52.16;99826.45;1780220;79;21464;-52
2021/04/25 06:36:15;;;;;;;1.63;1.10;;;;;;;8.26;52.30;99829.77;1813021;77;20984;-52
2021/04/25 06:38:44;;;;;;;4.53;1.40;;;;;;;8.31;52.27;99822.02;1776698;79;21145;-52
2021/04/25 06:41:11;;;;;;;3.97;1.30;;;;;;;8.38;52.16;99820.44;1781421;79;21086;-52
2021/04/25 06:43:39;;;;;;;2.80;1.10;;;;;;;8.47;52.37;99816.06;1786158;78;21296;-52
2021/04/25 06:46:06;;;;;;;2.20;0.90;;;;;;;8.55;51.72;99815.30;1782870;79;21174;-52
2021/04/25 06:48:35;;;;;;;1.47;0.90;;;;;;;8.61;51.74;99810.55;1781285;79;21130;-53
2021/04/25 06:51:04;;;;;;;2.03;1.10;;;;;;;8.72;51.11;99813.70;1783527;79;21146;-52
2021/04/25 06:53:31;;;;;;;1.47;0.90;;;;;;;8.81;50.88;99819.64;1785077;78;21088;-52
2021/04/25 06:55:59;;;;;;;1.90;1.17;;;;;;;8.87;50.61;99822.94;1785942;79;21258;-52
2021/04/25 06:58:26;;;;;;;3.13;1.00;;;;;;;8.91;50.21;99816.53;1779806;79;21150;-52
2021/04/25 07:00:53;;;;;;;2.37;1.10;;;;;;;8.97;50.37;99824.33;1809957;78;21099;-53
2021/04/25 07:03:21;;;;;;;1.63;0.90;;;;;;;9.01;50.42;99815.69;1779654;78;21913;-52
2021/04/25 07:05:49;;;;;;;1.70;1.07;;;;;;;9.07;50.43;99827.05;1808583;78;21185;-52
2021/04/25 07:08:16;;;;;;;1.10;0.70;;;;;;;9.19;50.12;99825.64;1809333;78;21432;-53
2021/04/25 07:10:44;;;;;;;1.30;0.90;;;;;;;9.29;49.93;99825.67;1810813;78;21194;-52
2021/04/25 07:13:11;;;;;;;2.47;1.00;;;;;;;9.40;49.65;99825.23;1810494;77;21189;-52
2021/04/25 07:15:41;;;;;;;1.23;0.97;;;;;;;9.46;49.73;99821.81;1809838;78;21190;-52
2021/04/25 07:18:08;;;;;;;2.03;0.90;;;;;;;9.57;49.96;99820.48;1809522;78;21171;-53
2021/04/25 07:20:38;;;;;;;2.93;1.00;;;;;;;9.67;48.99;99825.41;1808564;78;21429;-52
2021/04/25 07:23:06;;;;;;;1.67;0.90;;;;;;;9.72;48.39;99812.63;1809802;77;21279;-52
2021/04/25 07:25:33;;;;;;;2.30;0.93;;;;;;;9.80;48.02;99825.25;1811625;77;21227;-52
2021/04/25 07:28:01;;;;;;;1.57;0.80;;;;;;;9.87;47.69;99821.82;1809161;78;21205;-53
2021/04/25 07:30:28;;;;;;;1.60;0.90;;;;;;;9.94;47.27;99824.67;1773255;79;21623;-52
2021/04/25 07:32:55;;;;;;;4.20;1.33;;;;;;;9.99;47.46;99809.66;1781873;79;21633;-52
2021/04/25 07:35:22;;;;;;;2.10;0.73;;;;;;;10.04;47.13;99820.59;1783006;78;21217;-52
2021/04/25 07:37:50;;;;;;;2.90;0.87;;;;;;;10.16;47.27;99816.02;1812060;78;21154;-53
2021/04/25 07:40:18;;;;;;;2.17;0.80;;;;;;;10.23;46.56;99815.30;1810913;78;21195;-52
2021/04/25 07:42:45;;;;;;;1.70;1.17;;;;;;;10.25;45.84;99813.42;1789455;78;21100;-52
2021/04/25 07:45:14;;;;;;;2.00;1.10;;;;;;;10.21;45.87;99820.74;1782041;78;21358;-53
2021/04/25 07:47:43;;;;;;;1.50;0.80;;;;;;;10.20;46.17;99814.12;1775267;80;21238;-53
2021/04/25 07:50:11;;;;;;;2.60;0.90;;;;;;;10.22;46.52;99814.89;1784626;78;21130;-53
2021/04/25 07:52:38;;;;;;;3.37;1.00;;;;;;;10.28;46.18;99817.80;1782489;80;21236;-53
2021/04/25 07:55:07;;;;;;;1.83;0.80;;;;;;;10.34;45.88;99811.66;1777872;80;21182;-52
2021/04/25 07:57:36;;;;;;;1.00;0.73;;;;;;;10.40;45.46;99815.39;1784824;78;21862;-53
2021/04/25 08:00:09;;;;;;;1.30;0.70;;;;;;;10.41;45.49;99810.89;1771530;80;21234;-52
2021/04/25 08:02:37;;;;;;;1.10;0.80;;;;;;;10.40;45.35;99805.98;1791430;79;21220;-53
2021/04/25 08:05:06;;;;;;;1.10;0.70;;;;;;;10.44;45.37;99803.56;1791045;79;21178;-52
2021/04/25 08:07:34;;;;;;;1.50;0.70;;;;;;;10.47;44.36;99807.43;1789258;78;21318;-53
2021/04/25 08:10:01;;;;;;;2.43;0.90;;;;;;;10.51;44.04;99794.25;1790531;78;21197;-52
2021/04/25 08:12:29;;;;;;;1.90;0.90;;;;;;;10.56;44.64;99786.81;1792850;79;21154;-53
2021/04/25 08:14:56;;;;;;;2.00;0.87;;;;;;;10.66;44.90;99787.72;1794032;79;21743;-53
2021/04/25 08:17:24;;;;;;;1.93;1.00;;;;;;;10.77;44.98;99776.84;1788435;79;21144;-53
2021/04/25 08:19:51;;;;;;;4.30;0.80;;;;;;;10.92;44.32;99781.48;1788059;79;21439;-52
2021/04/25 08:22:19;;;;;;;1.53;0.97;;;;;;;11.03;43.85;99785.00;1787899;79;21914;-52
2021/04/25 08:24:46;;;;;;;1.90;1.00;;;;;;;11.13;44.38;99769.25;1813298;78;21209;-53
2021/04/25 08:27:13;;;;;;;2.87;0.90;;;;;;;11.23;43.96;99764.64;1788293;79;21810;-53
2021/04/25 08:29:41;;;;;;;3.97;0.80;;;;;;;11.32;43.78;99774.95;1790450;79;21599;-53
2021/04/25 08:32:08;;;;;;;2.07;0.90;;;;;;;11.39;43.59;99768.80;1790313;79;21798;-52
2021/04/25 08:34:36;;;;;;;1.30;0.87;;;;;;;11.44;43.65;99765.39;1771484;79;22285;-52
2021/04/25 08:37:03;;;;;;;1.37;0.90;;;;;;;11.53;43.18;99766.27;1765203;79;21225;-54
2021/04/25 08:39:31;;;;;;;1.60;0.78;;;;;;;11.55;42.41;99770.23;1769547;79;21174;-52
2021/04/25 08:41:58;;;;;;;2.70;0.80;;;;;;;11.53;41.16;99767.61;1776097;79;21160;-52
2021/04/25 08:44:26;;;;;;;1.03;0.70;;;;;;;11.50;41.26;99765.53;1765793;79;21227;-52
2021/04/25 08:46:53;;;;;;;1.85;0.70;;;;;;;11.53;41.22;99766.27;1770041;79;21390;-52
2021/04/25 08:49:26;;;;;;;1.70;0.70;;;;;;;11.60;41.43;99760.94;1770707;79;21254;-52
2021/04/25 08:51:55;;;;;;;5.45;0.98;;;;;;;11.66;41.20;99755.69;1766393;79;21436;-52
2021/04/25 08:54:24;;;;;;;1.20;0.70;;;;;;;11.69;40.74;99756.42;1770394;79;21187;-52
2021/04/25 08:56:52;;;;;;;3.02;0.70;;;;;;;11.71;40.34;99742.86;1753180;80;21142;-51
2021/04/25 08:59:19;;;;;;;2.55;0.65;;;;;;;11.70;40.18;99749.20;1769646;79;21407;-52
2021/04/25 09:01:48;;;;;;;1.42;1.10;;;;;;;11.66;40.16;99750.30;1774137;79;21183;-52
2021/04/25 09:04:15;;;;;;;2.40;0.93;;;;;;;11.59;40.10;99749.76;1773998;79;21132;-51
2021/04/25 09:07:09;;;;;;;6.67;0.80;;;;;;;11.50;39.74;99754.28;1767750;79;21148;-52
2021/04/25 09:09:55;;;;;;;1.57;0.90;;;;;;;11.42;39.58;99752.45;1767680;79;21656;-51
2021/04/25 09:12:40;;;;;;;1.30;0.70;;;;;;;11.33;40.01;99745.72;1769947;79;21207;-53
2021/04/25 09:15:15;;;;;;;5.58;1.35;;;;;;;11.26;40.83;99751.03;1749330;79;21133;-53
2021/04/25 09:17:58;;;;;;;1.42;0.78;;;;;;;11.14;41.78;99758.41;1770862;79;21142;-52
2021/04/25 09:20:48;;;;;;;1.75;1.00;;;;;;;11.07;42.39;99753.38;1766177;79;21138;-51
2021/04/25 09:23:27;;;;;;;1.67;0.90;;;;;;;10.99;42.80;99753.76;1767146;79;21098;-52
2021/04/25 09:25:56;;;;;;;1.30;0.90;;;;;;;10.93;42.23;99760.34;1769374;79;21337;-52
2021/04/25 09:28:23;;;;;;;1.70;0.77;;;;;;;10.88;42.02;99759.70;1770229;79;21145;-51
2021/04/25 09:31:02;;;;;;;2.57;0.80;;;;;;;10.82;41.14;99768.53;1774171;79;21125;-52
2021/04/25 09:33:52;;;;;;;1.67;1.10;;;;;;;10.75;40.53;99748.25;1775254;79;21128;-53
2021/04/25 09:36:22;;;;;;;2.43;0.90;;;;;;;10.69;40.94;99759.32;1784845;78;21135;-52
2021/04/25 09:38:51;;;;;;;3.83;1.60;;;;;;;10.58;41.38;99756.67;1779436;79;21420;-51
2021/04/25 09:41:31;;;;;;;2.00;0.80;;;;;;;10.53;41.93;99752.47;1783565;79;21393;-51
2021/04/25 09:44:01;;;;;;;3.40;0.70;;;;;;;10.53;42.24;99755.16;1786947;78;21103;-53
2021/04/25 09:46:51;;;;;;;3.00;0.90;;;;;;;10.58;42.36;99756.67;1783850;78;21099;-52
2021/04/25 09:49:43;;;;;;;2.83;0.90;;;;;;;10.63;42.92;99746.17;1776571;79;21191;-52
2021/04/25 09:52:27;;;;;;;2.30;0.90;;;;;;;10.67;43.31;99749.09;1746004;81;21219;-53
2021/04/25 09:55:20;;;;;;;2.57;0.70;;;;;;;10.71;43.58;99743.50;1750297;79;21210;-52
2021/04/25 09:57:49;;;;;;;2.40;0.80;;;;;;;10.75;43.68;99745.08;1810237;77;21513;-52
2021/04/25 10:00:17;;;;;;;3.83;0.80;;;;;;;10.78;43.43;99734.17;1782729;79;21128;-52
2021/04/25 10:03:09;;;;;;;3.10;0.97;;;;;;;10.79;43.11;99729.19;1756556;79;22427;-52
2021/04/25 10:06:06;;;;;;;1.20;0.87;;;;;;;10.80;43.07;99721.98;1780577;78;22238;-51
2021/04/25 10:08:35;;;;;;;1.37;0.90;;;;;;;10.80;42.98;99724.67;1808222;78;21676;-53
2021/04/25 10:11:05;;;;;;;4.50;0.90;;;;;;;10.76;43.16;99735.19;1778703;79;21139;-52
2021/04/25 10:13:37;;;;;;;1.37;0.80;;;;;;;10.70;43.52;99733.68;1778255;79;21307;-53
2021/04/25 10:16:05;;;;;;;1.40;0.80;;;;;;;10.66;43.86;99731.19;1784902;79;22690;-52
2021/04/25 10:18:33;;;;;;;1.47;0.80;;;;;;;10.59;44.24;99734.19;1807551;77;22282;-52
2021/04/25 10:21:00;;;;;;;2.73;0.90;;;;;;;10.52;44.67;99735.44;1782240;79;21221;-52
2021/04/25 10:23:29;;;;;;;1.40;0.97;;;;;;;10.45;45.39;99725.05;1782930;79;21134;-52
2021/04/25 10:25:56;;;;;;;1.00;0.70;;;;;;;10.43;45.70;99730.50;1777848;78;21178;-52
2021/04/25 10:28:33;;;;;;;1.97;0.90;;;;;;;10.42;45.77;99734.13;1775519;78;21805;-52
2021/04/25 10:31:07;;;;;;;2.57;1.00;;;;;;;10.43;45.82;99730.97;1774002;79;22263;-52
2021/04/25 10:36:55;;;;;;;1.30;0.90;;;;;;;10.57;45.99;99716.36;1819914;76;22640;-53
2021/04/25 10:39:52;;;;;;;1.70;0.90;;;;;;;10.60;45.50;99723.83;1796491;77;21051;-52
2021/04/25 10:42:29;;;;;;;1.10;0.77;;;;;;;10.63;45.26;99716.56;1784168;77;22287;-51
2021/04/25 10:45:03;;;;;;;1.20;0.80;;;;;;;10.65;45.40;99730.79;1776905;78;21003;-52
2021/04/25 10:47:33;;;;;;;1.77;1.15;;;;;;;10.68;45.52;99733.34;1773459;78;21582;-52
2021/04/25 10:50:17;;;;;;;4.30;0.80;;;;;;;10.72;45.85;99723.68;1775859;78;22356;-53
2021/04/25 10:52:46;;;;;;;3.03;0.90;;;;;;;10.82;45.85;99732.18;1776557;78;21167;-53
2021/04/25 10:55:25;;;;;;;3.00;0.80;;;;;;;10.92;46.28;99730.31;1776022;78;21653;-53
2021/04/25 10:58:01;;;;;;;1.10;0.80;;;;;;;11.03;46.05;99735.64;1775028;78;21063;-52
2021/04/25 11:00:37;;;;;;;1.10;0.70;;;;;;;11.10;46.29;99733.90;1772580;78;21052;-52
2021/04/25 11:03:10;;;;;;;2.80;0.90;;;;;;;11.13;45.94;99734.23;1774547;78;21716;-51
2021/04/25 11:05:45;;;;;;;2.08;0.93;;;;;;;11.13;45.54;99739.62;1779015;78;21162;-52
2021/04/25 11:08:21;;;;;;;1.97;0.90;;;;;;;11.06;45.54;99743.58;1776560;78;21192;-52
2021/04/25 11:10:56;;;;;;;1.50;0.80;;;;;;;10.98;45.62;99744.80;1774620;78;21213;-53
2021/04/25 11:13:45;;;;;;;3.20;0.70;;;;;;;10.93;45.90;99752.26;1775873;78;21167;-52
2021/04/25 11:16:23;;;;;;;2.33;0.70;;;;;;;10.90;46.40;99751.52;1774039;78;21174;-53
2021/04/25 11:19:09;;;;;;;1.67;0.70;;;;;;;10.86;46.81;99749.95;1775654;78;21170;-52
2021/04/25 11:21:52;;;;;;;1.67;0.80;;;;;;;10.81;47.58;99747.46;1776643;78;21615;-53
2021/04/25 11:24:29;;;;;;;1.30;0.80;;;;;;;10.79;47.46;99748.51;1777276;78;21012;-52
2021/04/25 11:26:59;;;;;;;4.10;0.93;;;;;;;10.77;47.49;99746.36;1778679;78;21179;-52
2021/04/25 11:29:41;;;;;;;1.60;0.90;;;;;;;10.74;48.56;99747.84;1774562;78;21369;-53
2021/04/25 11:32:26;;;;;;;2.47;0.80;;;;;;;10.74;49.09;99749.19;1776181;78;21653;-52
2021/04/25 11:34:55;;;;;;;1.30;0.60;;;;;;;10.74;49.19;99739.77;1777120;78;21264;-52
2021/04/25 11:37:23;;;;;;;1.33;0.70;;;;;;;10.72;48.94;99739.84;1781993;78;21201;-53
2021/04/25 11:40:01;;;;;;;1.97;0.80;;;;;;;10.72;48.53;99748.41;1775060;79;21222;-52
2021/04/25 11:42:39;;;;;;;2.27;0.80;;;;;;;10.66;48.35;99752.73;1777246;79;21183;-53
2021/04/25 11:45:11;;;;;;;1.37;0.83;;;;;;;10.66;48.23;99754.08;1774487;79;21492;-52
2021/04/25 11:47:50;;;;;;;1.10;0.90;;;;;;;10.62;48.54;99747.98;1774718;79;21374;-51
2021/04/25 11:50:18;;;;;;;2.03;0.80;;;;;;;10.53;49.32;99739.01;1778733;79;21118;-53
2021/04/25 11:52:46;;;;;;;1.23;0.80;;;;;;;10.42;50.42;99742.20;1777176;79;21199;-51
2021/04/25 11:55:17;;;;;;;3.00;1.10;;;;;;;10.35;51.61;99747.48;1775389;79;21747;-54
2021/04/25 11:57:49;;;;;;;4.80;0.97;;;;;;;10.28;51.84;99740.66;1776134;79;21218;-52